Time;durP1;ratioP1;P1;durP2;ratioP2;P2;SDS_P1;SDS_P2;PMS_P1;PMS_P2;Temp;Humidity;BMP_temperature;BMP_pressure;BME280_temperature;BME280_humidity;BME280_pressure;Samples;Min_cycle;Max_cycle;Signal;HPM_P1;HPM_P2
2021/05/29 00:02:06;;;;;;;19.17;10.08;;;14.30;99.90;;;;;;1945753;73;21054;-70
2021/05/29 00:04:33;;;;;;;15.18;10.10;;;14.30;99.90;;;;;;1938093;73;21109;-70
2021/05/29 00:07:00;;;;;;;15.35;10.88;;;14.40;99.90;;;;;;1945250;73;21138;-70
2021/05/29 00:09:28;;;;;;;15.10;9.13;;;14.50;99.90;;;;;;1945863;73;21567;-70
2021/05/29 00:11:56;;;;;;;15.10;9.60;;;14.40;99.90;;;;;;1940449;73;21115;-70
2021/05/29 00:14:24;;;;;;;13.25;9.80;;;14.30;99.90;;;;;;1945050;73;21119;-70
2021/05/29 00:16:51;;;;;;;13.40;9.33;;;14.30;99.90;;;;;;1942712;73;21202;-71
2021/05/29 00:19:19;;;;;;;12.25;8.73;;;14.30;99.90;;;;;;1944523;73;21089;-71
2021/05/29 00:21:46;;;;;;;14.63;9.35;;;14.30;99.90;;;;;;1944557;73;21089;-70
2021/05/29 00:24:14;;;;;;;14.63;10.13;;;14.40;99.90;;;;;;1937335;73;21149;-70
2021/05/29 00:26:42;;;;;;;15.28;9.40;;;14.40;99.90;;;;;;1941986;73;21042;-70
2021/05/29 00:29:10;;;;;;;15.95;9.85;;;14.30;99.90;;;;;;1943474;73;21080;-70
2021/05/29 00:31:37;;;;;;;12.80;9.43;;;14.30;99.90;;;;;;1945200;73;21092;-70
2021/05/29 00:34:05;;;;;;;16.40;9.00;;;14.20;99.90;;;;;;1944077;73;21143;-69
2021/05/29 00:36:32;;;;;;;12.05;8.25;;;14.30;99.90;;;;;;1944789;73;21645;-69
2021/05/29 00:39:00;;;;;;;13.65;8.78;;;14.20;99.90;;;;;;1944586;73;21060;-69
2021/05/29 00:41:27;;;;;;;16.37;8.68;;;14.40;99.90;;;;;;1940679;73;21058;-69
2021/05/29 00:43:55;;;;;;;13.55;8.80;;;14.30;99.90;;;;;;1943491;73;21509;-68
2021/05/29 00:46:22;;;;;;;12.47;7.83;;;14.40;99.90;;;;;;1941037;73;21117;-69
2021/05/29 00:48:50;;;;;;;18.73;8.90;;;14.50;99.90;;;;;;1940852;73;21131;-69
2021/05/29 00:51:17;;;;;;;13.25;8.65;;;14.40;99.90;;;;;;1944563;73;21154;-70
2021/05/29 00:53:47;;;;;;;14.78;8.80;;;14.30;99.90;;;;;;1941581;73;21043;-70
2021/05/29 00:56:14;;;;;;;12.58;8.28;;;14.30;99.90;;;;;;1941635;73;21109;-69
2021/05/29 00:58:42;;;;;;;16.05;9.20;;;14.40;99.90;;;;;;1946450;73;21050;-70
2021/05/29 01:01:10;;;;;;;14.43;8.83;;;14.30;99.90;;;;;;1943571;73;21240;-71
2021/05/29 01:03:39;;;;;;;14.05;8.75;;;14.30;99.90;;;;;;1942102;73;21657;-68
2021/05/29 01:06:07;;;;;;;16.80;9.33;;;14.30;99.90;;;;;;1943472;73;21145;-71
2021/05/29 01:08:34;;;;;;;16.57;9.30;;;14.40;99.90;;;;;;1945939;73;21606;-71
2021/05/29 01:11:02;;;;;;;13.08;9.03;;;14.50;99.90;;;;;;1939555;73;21647;-72
2021/05/29 01:13:32;;;;;;;16.90;8.80;;;14.60;99.90;;;;;;1944865;73;21006;-71
2021/05/29 01:16:08;;;;;;;13.70;8.88;;;14.60;99.90;;;;;;1938305;72;21129;-70
2021/05/29 01:18:31;;;;;;;11.10;8.38;;;14.50;99.90;;;;;;1939206;72;21105;-71
2021/05/29 01:21:01;;;;;;;14.60;8.40;;;14.30;99.90;;;;;;1949562;73;21042;-70
2021/05/29 01:23:28;;;;;;;12.98;8.28;;;14.30;99.90;;;;;;1943130;73;21041;-71
2021/05/29 01:25:55;;;;;;;12.10;7.78;;;14.30;99.90;;;;;;1941884;73;21140;-71
2021/05/29 01:28:28;;;;;;;9.85;7.35;;;14.20;99.90;;;;;;1946934;73;21077;-68
2021/05/29 01:31:00;;;;;;;10.13;7.50;;;14.20;99.90;;;;;;1939656;73;21566;-71
2021/05/29 01:33:30;;;;;;;16.70;7.47;;;14.10;99.90;;;;;;1942278;73;21148;-70
2021/05/29 01:36:00;;;;;;;10.35;7.60;;;14.10;99.90;;;;;;1940987;73;21587;-70
2021/05/29 01:38:28;;;;;;;10.32;7.22;;;14.20;99.90;;;;;;1944918;73;21151;-69
2021/05/29 01:41:07;;;;;;;10.80;7.33;;;14.20;99.90;;;;;;1943997;73;21512;-70
2021/05/29 01:43:40;;;;;;;10.65;7.20;;;14.10;99.90;;;;;;1941845;73;21130;-69
2021/05/29 01:46:08;;;;;;;10.25;7.95;;;14.00;99.90;;;;;;1946802;73;21426;-69
2021/05/29 01:48:43;;;;;;;12.07;7.62;;;13.90;99.90;;;;;;1943693;73;21101;-69
2021/05/29 01:51:10;;;;;;;9.60;7.22;;;13.90;99.90;;;;;;1942680;73;21140;-69
2021/05/29 01:53:38;;;;;;;9.50;7.50;;;13.80;99.90;;;;;;1946371;73;21727;-70
2021/05/29 01:56:06;;;;;;;11.60;8.00;;;13.80;99.90;;;;;;1943536;73;21274;-69
2021/05/29 01:58:36;;;;;;;11.75;7.25;;;13.80;99.90;;;;;;1946801;73;21591;-70
2021/05/29 02:01:06;;;;;;;8.83;7.60;;;13.80;99.90;;;;;;1942374;73;21222;-70
2021/05/29 02:03:34;;;;;;;11.73;6.90;;;13.80;99.90;;;;;;1940893;73;21578;-70
2021/05/29 02:06:01;;;;;;;9.18;7.75;;;13.80;99.90;;;;;;1943198;73;21094;-70
2021/05/29 02:08:29;;;;;;;9.88;6.97;;;13.90;99.90;;;;;;1946765;73;21128;-70
2021/05/29 02:10:56;;;;;;;10.95;7.30;;;13.90;99.90;;;;;;1942767;73;21101;-70
2021/05/29 02:13:36;;;;;;;12.90;7.33;;;13.90;99.90;;;;;;1939597;73;21605;-70
2021/05/29 02:16:05;;;;;;;10.15;6.80;;;13.80;99.90;;;;;;1941816;73;21093;-70
2021/05/29 02:18:34;;;;;;;8.25;6.40;;;13.80;99.90;;;;;;1942504;73;21011;-70
2021/05/29 02:21:04;;;;;;;9.78;6.67;;;13.80;99.90;;;;;;1942802;73;21085;-70
2021/05/29 02:23:35;;;;;;;8.40;6.58;;;13.80;99.90;;;;;;1943560;73;21097;-70
2021/05/29 02:26:05;;;;;;;14.07;7.12;;;13.90;99.90;;;;;;1941378;73;21211;-70
2021/05/29 02:28:37;;;;;;;9.90;7.05;;;13.90;99.90;;;;;;1945245;73;21102;-70
2021/05/29 02:31:06;;;;;;;9.68;6.42;;;13.80;99.90;;;;;;1944196;73;21113;-70
2021/05/29 02:33:35;;;;;;;9.35;5.83;;;13.80;99.90;;;;;;1940505;73;21080;-70
2021/05/29 02:36:05;;;;;;;13.48;6.20;;;13.90;99.90;;;;;;1942663;73;21724;-70
2021/05/29 02:38:34;;;;;;;7.42;5.62;;;13.80;99.90;;;;;;1944170;73;21092;-70
2021/05/29 02:41:06;;;;;;;9.65;5.67;;;13.70;99.90;;;;;;1944617;73;21174;-70
2021/05/29 02:43:34;;;;;;;8.58;5.30;;;13.90;99.90;;;;;;1941774;73;21123;-70
2021/05/29 02:46:02;;;;;;;6.95;5.35;;;13.80;99.90;;;;;;1940581;73;21073;-70
2021/05/29 02:48:29;;;;;;;10.13;6.30;;;13.80;99.90;;;;;;1940986;73;21081;-70
2021/05/29 02:50:57;;;;;;;11.05;5.90;;;13.80;99.90;;;;;;1945568;73;21085;-70
2021/05/29 02:53:24;;;;;;;12.07;6.15;;;13.80;99.90;;;;;;1943207;73;21073;-69
2021/05/29 02:55:52;;;;;;;10.28;5.65;;;13.80;99.90;;;;;;1946351;73;22244;-70
2021/05/29 02:58:19;;;;;;;10.32;6.00;;;13.80;99.90;;;;;;1944939;73;21066;-70
2021/05/29 03:00:49;;;;;;;11.53;6.80;;;13.80;99.90;;;;;;1941885;73;21094;-70
2021/05/29 03:03:17;;;;;;;10.68;6.60;;;13.90;99.90;;;;;;1939657;73;21065;-70
2021/05/29 03:05:47;;;;;;;11.12;6.25;;;13.80;99.90;;;;;;1945746;73;21145;-70
2021/05/29 03:08:16;;;;;;;11.60;6.58;;;13.70;99.90;;;;;;1944803;73;21167;-69
2021/05/29 03:10:49;;;;;;;11.33;7.00;;;13.70;99.90;;;;;;1944413;73;21047;-69
2021/05/29 03:13:16;;;;;;;14.98;8.25;;;13.80;99.90;;;;;;1943610;73;21085;-70
2021/05/29 03:15:44;;;;;;;9.20;6.97;;;13.80;99.90;;;;;;1941463;73;21113;-69
2021/05/29 03:18:12;;;;;;;9.63;6.87;;;13.90;99.90;;;;;;1944109;73;21097;-69
2021/05/29 03:20:39;;;;;;;14.43;8.05;;;13.80;99.90;;;;;;1942604;72;21104;-69
2021/05/29 03:23:08;;;;;;;11.63;8.15;;;13.70;99.90;;;;;;1944018;73;21082;-69
2021/05/29 03:25:35;;;;;;;12.20;7.87;;;13.70;99.90;;;;;;1945765;73;21167;-69
2021/05/29 03:28:05;;;;;;;13.93;7.90;;;13.80;99.90;;;;;;1943846;73;21114;-69
2021/05/29 03:30:32;;;;;;;10.88;8.03;;;13.60;99.90;;;;;;1944322;72;21095;-69
2021/05/29 03:33:00;;;;;;;9.65;7.67;;;13.60;99.90;;;;;;1944696;73;21051;-69
2021/05/29 03:35:28;;;;;;;11.95;7.65;;;13.70;99.90;;;;;;1945350;73;21583;-69
2021/05/29 03:37:56;;;;;;;10.80;6.80;;;13.60;99.90;;;;;;1946143;73;21461;-69
2021/05/29 03:40:24;;;;;;;12.28;6.70;;;13.60;99.90;;;;;;1940734;73;21127;-68
2021/05/29 03:42:52;;;;;;;11.85;7.00;;;13.60;99.90;;;;;;1944458;73;21129;-68
2021/05/29 03:45:21;;;;;;;11.18;6.80;;;13.60;99.90;;;;;;1940581;73;21105;-69
2021/05/29 03:47:49;;;;;;;10.43;7.83;;;13.60;99.90;;;;;;1943445;73;21038;-68
2021/05/29 03:50:20;;;;;;;13.20;7.75;;;13.60;99.90;;;;;;1945502;73;21148;-68
2021/05/29 03:52:48;;;;;;;11.35;7.60;;;13.60;99.90;;;;;;1948701;72;21202;-68
2021/05/29 03:55:16;;;;;;;12.50;8.05;;;13.60;99.90;;;;;;1944871;73;21105;-70
2021/05/29 03:57:45;;;;;;;13.83;8.23;;;13.50;99.90;;;;;;1943128;72;21144;-69
2021/05/29 04:00:16;;;;;;;13.22;8.90;;;13.50;99.90;;;;;;1943695;73;21558;-69
2021/05/29 04:02:47;;;;;;;15.03;8.80;;;13.60;99.90;;;;;;1943781;73;21081;-70
2021/05/29 04:05:16;;;;;;;12.88;8.93;;;13.50;99.90;;;;;;1944546;73;21106;-69
2021/05/29 04:07:44;;;;;;;13.55;9.08;;;13.60;99.90;;;;;;1945672;73;21624;-69
2021/05/29 04:10:14;;;;;;;11.63;9.30;;;13.60;99.90;;;;;;1943310;73;21070;-68
2021/05/29 04:12:42;;;;;;;11.88;8.93;;;13.70;99.90;;;;;;1940621;73;21014;-69
2021/05/29 04:15:11;;;;;;;14.30;9.48;;;13.60;99.90;;;;;;1944804;73;21155;-69
2021/05/29 04:17:39;;;;;;;14.70;10.10;;;13.70;99.90;;;;;;1941275;73;21159;-69
2021/05/29 04:20:07;;;;;;;15.32;10.30;;;13.60;99.90;;;;;;1941766;73;21500;-69
2021/05/29 04:22:35;;;;;;;12.80;10.03;;;13.70;99.90;;;;;;1937825;73;21282;-69
2021/05/29 04:25:05;;;;;;;12.90;9.33;;;13.60;99.90;;;;;;1942187;73;21042;-68
2021/05/29 04:27:32;;;;;;;11.25;9.63;;;13.70;99.90;;;;;;1941958;73;21050;-69
2021/05/29 04:30:00;;;;;;;11.80;9.05;;;13.60;99.90;;;;;;1943808;73;21377;-69
2021/05/29 04:32:27;;;;;;;15.78;9.48;;;13.70;99.90;;;;;;1938339;73;20999;-69
2021/05/29 04:34:55;;;;;;;11.68;9.13;;;13.60;99.90;;;;;;1941336;73;21081;-69
2021/05/29 04:37:23;;;;;;;16.55;9.40;;;13.60;99.90;;;;;;1944753;73;21008;-69
2021/05/29 04:39:50;;;;;;;13.40;9.03;;;13.60;99.90;;;;;;1944271;73;21069;-69
2021/05/29 04:42:18;;;;;;;15.05;9.60;;;13.50;99.90;;;;;;1944703;73;21492;-69
2021/05/29 04:44:45;;;;;;;10.90;8.83;;;13.60;99.90;;;;;;1945012;73;21556;-69
2021/05/29 04:47:13;;;;;;;12.95;10.20;;;13.60;99.90;;;;;;1944909;73;21191;-69
2021/05/29 04:49:40;;;;;;;14.98;10.60;;;13.60;99.90;;;;;;1945465;73;21128;-69
2021/05/29 04:52:08;;;;;;;14.50;10.38;;;13.60;99.90;;;;;;1942043;73;21163;-69
2021/05/29 04:54:39;;;;;;;16.02;10.13;;;13.60;99.90;;;;;;1943999;73;21179;-68
2021/05/29 04:57:05;;;;;;;12.00;9.78;;;13.60;99.90;;;;;;1945724;73;21202;-68
2021/05/29 04:59:33;;;;;;;14.25;10.20;;;13.70;99.90;;;;;;1941507;73;21220;-70
2021/05/29 05:02:00;;;;;;;14.55;10.23;;;13.70;99.90;;;;;;1947148;73;21077;-70
2021/05/29 05:04:28;;;;;;;14.40;10.38;;;13.70;99.90;;;;;;1937986;73;21674;-70
2021/05/29 05:06:55;;;;;;;13.88;10.30;;;13.60;99.90;;;;;;1942399;73;21054;-70
2021/05/29 05:09:23;;;;;;;13.68;10.70;;;13.60;99.90;;;;;;1944009;73;21070;-69
2021/05/29 05:11:51;;;;;;;14.98;10.25;;;13.60;99.90;;;;;;1941775;73;21062;-70
2021/05/29 05:14:18;;;;;;;14.53;9.75;;;13.60;99.90;;;;;;1944024;73;21563;-69
2021/05/29 05:16:46;;;;;;;14.65;9.90;;;13.70;99.90;;;;;;1942662;73;21598;-70
2021/05/29 05:19:14;;;;;;;12.90;9.13;;;13.70;99.90;;;;;;1942295;72;21726;-70
2021/05/29 05:21:42;;;;;;;16.87;10.18;;;13.80;99.90;;;;;;1940883;73;21069;-70
2021/05/29 05:24:10;;;;;;;14.65;9.60;;;13.80;99.90;;;;;;1941236;73;21117;-70
2021/05/29 05:26:37;;;;;;;13.98;9.98;;;13.80;99.90;;;;;;1946140;73;21721;-70
2021/05/29 05:29:05;;;;;;;14.95;9.65;;;13.80;99.90;;;;;;1943686;73;21602;-70
2021/05/29 05:31:36;;;;;;;12.07;9.65;;;13.80;99.90;;;;;;1940303;73;21166;-70
2021/05/29 05:34:08;;;;;;;13.18;9.50;;;13.80;99.90;;;;;;1943448;73;21543;-70
2021/05/29 05:36:40;;;;;;;13.28;10.23;;;13.90;99.90;;;;;;1941120;73;21101;-70
2021/05/29 05:39:09;;;;;;;16.30;10.98;;;13.90;99.90;;;;;;1946736;73;21078;-70
2021/05/29 05:41:38;;;;;;;16.42;10.93;;;13.80;99.90;;;;;;1943812;73;21085;-70
2021/05/29 05:44:06;;;;;;;14.28;10.75;;;13.70;99.90;;;;;;1943233;73;21156;-71
2021/05/29 05:46:34;;;;;;;17.07;11.05;;;13.90;99.90;;;;;;1939808;73;21553;-70
2021/05/29 05:49:02;;;;;;;16.30;10.98;;;13.80;99.90;;;;;;1942664;73;21709;-70
2021/05/29 05:51:32;;;;;;;15.28;10.80;;;13.90;99.90;;;;;;1944670;73;21050;-70
2021/05/29 05:53:59;;;;;;;13.58;10.18;;;13.90;99.90;;;;;;1940579;73;21660;-71
2021/05/29 05:56:27;;;;;;;13.95;10.72;;;14.00;99.90;;;;;;1941090;73;22641;-70
2021/05/29 05:58:57;;;;;;;13.55;10.72;;;14.00;99.90;;;;;;1942703;73;21658;-70
2021/05/29 06:01:26;;;;;;;14.65;10.03;;;13.90;99.90;;;;;;1942324;73;21147;-69
2021/05/29 06:03:54;;;;;;;14.65;10.50;;;14.00;99.90;;;;;;1939388;73;21524;-69
2021/05/29 06:06:23;;;;;;;16.25;9.83;;;13.90;99.90;;;;;;1944446;73;21038;-69
2021/05/29 06:08:51;;;;;;;14.93;9.48;;;13.90;99.90;;;;;;1944515;73;21089;-69
2021/05/29 06:11:18;;;;;;;11.93;8.63;;;13.90;99.90;;;;;;1943867;73;21104;-69
2021/05/29 06:19:11;;;;;;;12.53;8.40;;;14.20;99.90;;;;;;1941841;73;21134;-69
2021/05/29 06:21:33;;;;;;;14.50;9.03;;;14.10;99.90;;;;;;1941239;73;21103;-69
2021/05/29 06:24:01;;;;;;;17.02;9.90;;;14.10;99.90;;;;;;1947281;73;21073;-69
2021/05/29 06:26:28;;;;;;;12.73;8.48;;;14.20;99.90;;;;;;1942242;73;21026;-69
2021/05/29 06:28:56;;;;;;;12.00;9.48;;;14.30;99.90;;;;;;1945931;73;21135;-70
2021/05/29 06:31:23;;;;;;;11.43;9.08;;;14.30;99.90;;;;;;1946054;73;21014;-69
2021/05/29 06:33:51;;;;;;;10.13;8.10;;;14.20;99.90;;;;;;1946723;73;21015;-69
2021/05/29 06:36:19;;;;;;;12.58;8.95;;;14.10;99.90;;;;;;1944764;73;21094;-69
2021/05/29 06:38:46;;;;;;;9.18;7.53;;;14.10;99.90;;;;;;1945173;73;21033;-70
2021/05/29 06:41:14;;;;;;;9.25;7.37;;;14.10;99.90;;;;;;1945951;73;21151;-70
2021/05/29 06:43:41;;;;;;;12.65;8.25;;;14.00;99.90;;;;;;1942531;73;21133;-69
2021/05/29 06:46:08;;;;;;;11.85;8.73;;;14.20;99.90;;;;;;1944594;73;21109;-69
2021/05/29 06:48:36;;;;;;;11.95;9.08;;;14.40;99.90;;;;;;1945439;73;21525;-69
2021/05/29 06:51:04;;;;;;;13.05;8.78;;;14.30;99.90;;;;;;1942065;73;21665;-69
2021/05/29 06:53:44;;;;;;;13.60;9.10;;;14.40;99.90;;;;;;1945176;73;21158;-69
2021/05/29 06:58:49;;;;;;;14.40;10.25;;;14.30;99.90;;;;;;1893419;73;21074;-69
2021/05/29 07:01:19;;;;;;;16.73;12.23;;;14.30;99.90;;;;;;1947711;73;21141;-70
2021/05/29 07:03:48;;;;;;;17.37;11.80;;;14.40;99.90;;;;;;1945627;73;21127;-70
2021/05/29 07:06:17;;;;;;;14.50;10.65;;;14.40;99.90;;;;;;1943543;73;21230;-71
2021/05/29 07:08:44;;;;;;;17.42;12.63;;;14.30;99.90;;;;;;1942291;73;21275;-70
2021/05/29 07:11:12;;;;;;;15.53;12.73;;;14.10;99.90;;;;;;1938803;73;21143;-71
2021/05/29 07:13:40;;;;;;;18.62;12.88;;;14.10;99.90;;;;;;1943897;73;21058;-70
2021/05/29 07:16:07;;;;;;;19.70;13.48;;;14.30;99.90;;;;;;1942979;73;21117;-70
2021/05/29 07:18:44;;;;;;;14.53;11.73;;;14.40;99.90;;;;;;1941666;73;21038;-70
2021/05/29 07:21:04;;;;;;;15.43;12.05;;;14.40;99.90;;;;;;1941377;72;21168;-70
2021/05/29 07:23:32;;;;;;;15.43;10.25;;;14.60;99.90;;;;;;1891025;75;21148;-70
2021/05/29 07:26:01;;;;;;;12.15;9.18;;;14.60;99.90;;;;;;1941795;73;21153;-71
2021/05/29 07:28:29;;;;;;;12.13;7.65;;;14.70;99.90;;;;;;1946854;73;21125;-71
2021/05/29 07:30:56;;;;;;;10.18;6.80;;;14.50;99.90;;;;;;1941817;72;21709;-71
2021/05/29 07:33:24;;;;;;;10.75;6.42;;;14.50;99.90;;;;;;1939998;73;21085;-70
2021/05/29 07:35:52;;;;;;;10.98;5.97;;;14.50;99.90;;;;;;1945705;73;21082;-70
2021/05/29 07:38:21;;;;;;;8.15;5.58;;;14.50;99.90;;;;;;1943698;73;21097;-71
2021/05/29 07:40:49;;;;;;;12.25;6.55;;;14.50;99.90;;;;;;1938265;72;21103;-71
2021/05/29 07:43:17;;;;;;;11.33;6.30;;;14.50;99.90;;;;;;1942598;73;22107;-71
2021/05/29 07:45:45;;;;;;;9.58;5.97;;;14.50;99.90;;;;;;1947041;73;21163;-70
2021/05/29 07:48:12;;;;;;;10.80;6.10;;;14.60;99.90;;;;;;1944455;73;21105;-68
2021/05/29 07:51:03;;;;;;;9.33;5.85;;;14.70;99.90;;;;;;1943232;73;21081;-68
2021/05/29 07:53:34;;;;;;;12.78;6.80;;;14.80;99.90;;;;;;1941469;73;21065;-68
2021/05/29 07:56:03;;;;;;;11.43;7.22;;;14.90;99.90;;;;;;1943681;73;21143;-68
2021/05/29 07:58:31;;;;;;;11.63;8.03;;;14.90;99.90;;;;;;1941800;73;21068;-68
2021/05/29 08:00:59;;;;;;;11.68;8.55;;;14.90;99.90;;;;;;1942768;73;21062;-68
2021/05/29 08:03:29;;;;;;;11.83;8.20;;;14.90;99.90;;;;;;1947330;73;21030;-68
2021/05/29 08:05:57;;;;;;;13.83;9.35;;;14.80;99.90;;;;;;1945341;73;21555;-67
2021/05/29 08:08:26;;;;;;;11.63;8.75;;;14.80;99.90;;;;;;1945161;73;21167;-67
2021/05/29 08:10:56;;;;;;;11.33;8.85;;;14.90;99.90;;;;;;1942544;73;21093;-67
2021/05/29 08:13:23;;;;;;;10.72;8.95;;;14.90;99.90;;;;;;1941660;73;21103;-68
2021/05/29 08:15:51;;;;;;;10.13;8.53;;;14.90;99.90;;;;;;1945470;73;21118;-67
2021/05/29 08:18:19;;;;;;;11.50;8.90;;;14.90;99.90;;;;;;1941289;73;21127;-67
2021/05/29 08:20:49;;;;;;;9.45;8.10;;;14.90;99.90;;;;;;1942110;73;21619;-68
2021/05/29 08:23:17;;;;;;;13.00;9.30;;;15.00;99.90;;;;;;1943347;73;21089;-66
2021/05/29 08:25:46;;;;;;;12.47;8.90;;;15.10;99.90;;;;;;1943749;73;21145;-68
2021/05/29 08:28:14;;;;;;;10.48;8.45;;;15.10;99.90;;;;;;1945313;73;21105;-67
2021/05/29 08:30:42;;;;;;;11.65;7.72;;;15.10;99.90;;;;;;1943694;73;21146;-68
2021/05/29 08:33:10;;;;;;;12.25;7.33;;;15.10;99.90;;;;;;1940033;73;21121;-68
2021/05/29 08:35:37;;;;;;;11.57;7.65;;;15.20;99.90;;;;;;1939025;73;21191;-68
2021/05/29 08:38:06;;;;;;;12.30;8.68;;;15.20;99.90;;;;;;1869435;75;21131;-69
2021/05/29 08:40:34;;;;;;;12.33;9.50;;;15.20;99.90;;;;;;1899723;74;21071;-69
2021/05/29 08:43:02;;;;;;;13.40;10.28;;;15.10;99.90;;;;;;1900707;74;21141;-72
2021/05/29 08:45:30;;;;;;;12.55;10.35;;;15.10;99.90;;;;;;1948655;73;21554;-76
2021/05/29 08:47:58;;;;;;;12.18;9.73;;;15.10;99.90;;;;;;1944060;73;21018;-72
2021/05/29 08:50:26;;;;;;;10.10;9.03;;;15.20;99.90;;;;;;1943456;73;21090;-73
2021/05/29 08:52:54;;;;;;;12.00;8.48;;;15.30;99.90;;;;;;1945808;73;21527;-70
2021/05/29 08:55:23;;;;;;;11.48;8.13;;;15.30;99.90;;;;;;1942863;73;21571;-70
2021/05/29 08:57:50;;;;;;;13.45;8.85;;;15.30;99.90;;;;;;1947483;73;21109;-68
2021/05/29 09:00:26;;;;;;;14.10;10.25;;;15.40;99.90;;;;;;1945043;73;21113;-68
2021/05/29 09:02:59;;;;;;;18.32;10.88;;;15.30;99.90;;;;;;1946886;73;21085;-71
2021/05/29 09:05:51;;;;;;;14.47;11.03;;;15.40;99.90;;;;;;1942423;73;21057;-69
2021/05/29 09:08:21;;;;;;;15.70;13.00;;;15.40;99.90;;;;;;1947253;73;21050;-71
2021/05/29 09:10:52;;;;;;;17.42;14.18;;;15.40;99.90;;;;;;1941922;73;21018;-71
2021/05/29 09:13:28;;;;;;;15.35;13.53;;;15.40;99.90;;;;;;1943507;73;21089;-69
2021/05/29 09:15:58;;;;;;;15.70;13.75;;;15.50;99.90;;;;;;1946259;73;22101;-69
2021/05/29 09:18:29;;;;;;;15.13;13.53;;;15.50;99.90;;;;;;1942174;73;21167;-69
2021/05/29 09:21:20;;;;;;;15.20;13.50;;;15.60;99.90;;;;;;1944916;73;21121;-70
2021/05/29 09:23:50;;;;;;;17.20;13.55;;;15.60;99.90;;;;;;1925523;73;21182;-70
2021/05/29 09:26:21;;;;;;;13.48;12.07;;;15.50;99.90;;;;;;1942183;73;21606;-70
2021/05/29 09:28:48;;;;;;;14.47;11.93;;;15.60;99.90;;;;;;1943230;73;21642;-71
2021/05/29 09:31:16;;;;;;;12.30;10.98;;;15.50;99.90;;;;;;1946008;73;21050;-70
2021/05/29 09:33:46;;;;;;;14.00;10.08;;;15.40;99.90;;;;;;1943954;72;21273;-70
2021/05/29 09:36:16;;;;;;;11.53;9.05;;;15.40;99.90;;;;;;1945484;73;21074;-70
2021/05/29 09:38:46;;;;;;;10.18;8.18;;;15.70;99.90;;;;;;1944792;73;21084;-70
2021/05/29 09:41:30;;;;;;;8.85;7.33;;;15.60;99.90;;;;;;1939196;72;21096;-71
2021/05/29 09:44:04;;;;;;;10.68;7.83;;;15.60;99.90;;;;;;1944070;73;21078;-70
2021/05/29 09:46:33;;;;;;;10.55;8.40;;;15.80;99.90;;;;;;1942985;73;20991;-71
2021/05/29 09:49:02;;;;;;;11.88;8.23;;;15.90;99.90;;;;;;1939332;73;21111;-71
2021/05/29 09:51:33;;;;;;;10.03;8.35;;;15.80;99.90;;;;;;1945612;73;21024;-71
2021/05/29 09:54:12;;;;;;;11.93;9.35;;;15.90;99.90;;;;;;1946379;73;21014;-71
2021/05/29 09:56:42;;;;;;;12.58;8.30;;;15.90;99.90;;;;;;1943473;73;21030;-71
2021/05/29 09:59:16;;;;;;;11.50;8.43;;;15.90;99.90;;;;;;1949149;73;20995;-70
2021/05/29 10:01:47;;;;;;;10.70;7.85;;;15.80;99.90;;;;;;1943148;73;21127;-70
2021/05/29 10:04:40;;;;;;;10.80;7.50;;;15.90;99.90;;;;;;1940619;73;21618;-71
2021/05/29 10:07:13;;;;;;;10.08;7.08;;;16.00;99.90;;;;;;1947262;73;21183;-69
2021/05/29 10:09:41;;;;;;;11.35;8.08;;;16.00;99.90;;;;;;1949599;73;21118;-70
2021/05/29 10:12:10;;;;;;;10.70;7.70;;;16.00;99.90;;;;;;1947911;73;21419;-70
2021/05/29 10:14:38;;;;;;;10.15;7.70;;;16.00;99.90;;;;;;1941156;73;21113;-70
2021/05/29 10:17:08;;;;;;;8.55;6.97;;;16.10;99.90;;;;;;1946534;73;21093;-70
2021/05/29 10:19:37;;;;;;;9.35;6.85;;;16.10;99.90;;;;;;1948743;72;21026;-70
2021/05/29 10:22:07;;;;;;;8.70;7.10;;;16.20;99.90;;;;;;1942401;73;21179;-72
2021/05/29 10:24:37;;;;;;;8.70;6.92;;;16.20;99.90;;;;;;1946717;73;21086;-71
2021/05/29 10:27:08;;;;;;;8.73;6.55;;;16.20;99.90;;;;;;1944104;73;21093;-71
2021/05/29 10:29:37;;;;;;;8.63;6.47;;;16.20;99.90;;;;;;1938215;73;21508;-71
2021/05/29 10:32:19;;;;;;;13.60;6.85;;;16.20;99.90;;;;;;1945127;73;21067;-68
2021/05/29 10:35:07;;;;;;;9.05;6.97;;;16.30;99.90;;;;;;1944061;73;21183;-69
2021/05/29 10:37:46;;;;;;;7.62;6.42;;;16.30;99.90;;;;;;1904360;73;21191;-69
2021/05/29 10:40:20;;;;;;;10.20;7.10;;;16.30;99.90;;;;;;1897856;74;21971;-68
2021/05/29 10:43:08;;;;;;;10.30;6.50;;;16.20;99.90;;;;;;1936821;73;21093;-70
2021/05/29 10:45:54;;;;;;;11.57;7.58;;;16.30;99.90;;;;;;1946975;73;21062;-70
2021/05/29 10:48:23;;;;;;;11.18;6.65;;;16.20;99.90;;;;;;1936458;73;21069;-69
2021/05/29 10:50:54;;;;;;;10.55;7.15;;;16.20;99.90;;;;;;1943093;73;21128;-69
2021/05/29 10:53:43;;;;;;;10.00;6.50;;;16.30;99.90;;;;;;1944455;73;21054;-69
2021/05/29 10:56:23;;;;;;;11.55;7.08;;;16.30;99.90;;;;;;1933960;73;21136;-69
2021/05/29 10:59:07;;;;;;;9.25;6.25;;;16.30;99.90;;;;;;1943334;73;21121;-68
2021/05/29 11:01:40;;;;;;;9.38;6.12;;;16.40;99.90;;;;;;1942783;73;22276;-68
2021/05/29 11:04:14;;;;;;;;;;;16.50;99.90;;;;;;1946242;73;21190;-69
2021/05/29 11:06:43;;;;;;;8.45;6.15;;;16.70;99.90;;;;;;1948201;73;20208;-68
2021/05/29 11:09:13;;;;;;;8.15;6.33;;;16.70;99.90;;;;;;1942870;73;21602;-67
2021/05/29 11:14:18;;;;;;;11.70;7.83;;;16.90;99.90;;;;;;1947356;73;21191;-69
2021/05/29 11:16:49;;;;;;;11.30;7.83;;;16.90;99.90;;;;;;1946006;73;21190;-69
2021/05/29 11:19:19;;;;;;;11.93;7.20;;;17.00;99.90;;;;;;1937142;72;21468;-69
2021/05/29 11:22:19;;;;;;;9.55;7.30;;;17.10;99.90;;;;;;1943442;72;21126;-69
2021/05/29 11:24:56;;;;;;;10.30;7.28;;;17.10;99.90;;;;;;1937543;72;22488;-69
2021/05/29 11:27:34;;;;;;;10.40;6.90;;;16.90;99.90;;;;;;1943513;73;21160;-68
2021/05/29 11:30:14;;;;;;;7.20;6.25;;;17.00;99.90;;;;;;1947743;73;21552;-69
2021/05/29 11:35:49;;;;;;;8.15;6.35;;;17.10;99.90;;;;;;1943238;72;21109;-68
2021/05/29 11:38:26;;;;;;;10.88;6.78;;;17.20;99.90;;;;;;1943498;72;21068;-70
2021/05/29 11:41:16;;;;;;;8.83;6.30;;;17.20;99.90;;;;;;1945132;73;21018;-68
2021/05/29 11:43:52;;;;;;;12.53;6.08;;;17.30;99.90;;;;;;1943205;73;21705;-70
2021/05/29 11:46:22;;;;;;;11.85;6.00;;;17.30;99.90;;;;;;1938314;73;21114;-68
2021/05/29 11:48:57;;;;;;;8.83;6.35;;;17.20;99.90;;;;;;1944632;73;21559;-68
2021/05/29 11:51:27;;;;;;;8.90;6.58;;;17.20;99.90;;;;;;1950179;73;21399;-68
2021/05/29 11:54:10;;;;;;;9.38;7.00;;;17.10;99.90;;;;;;1945965;73;21094;-68
2021/05/29 11:56:49;;;;;;;8.88;6.92;;;17.10;99.90;;;;;;1870118;75;21124;-70
2021/05/29 11:59:14;;;;;;;9.63;6.45;;;17.10;99.90;;;;;;1888633;74;21082;-68
2021/05/29 12:01:44;;;;;;;12.37;7.62;;;17.20;99.90;;;;;;1934549;73;21218;-70
2021/05/29 12:04:15;;;;;;;12.35;7.10;;;17.20;99.90;;;;;;1943522;73;21635;-70
2021/05/29 12:06:51;;;;;;;9.10;6.70;;;17.10;99.90;;;;;;1938216;73;21125;-70
2021/05/29 12:09:34;;;;;;;7.40;6.53;;;17.10;99.90;;;;;;1934969;73;21591;-69
2021/05/29 12:12:09;;;;;;;10.13;6.15;;;17.10;99.90;;;;;;1938193;73;21086;-68
2021/05/29 12:14:39;;;;;;;14.75;6.87;;;17.10;99.90;;;;;;1941973;73;21117;-68
2021/05/29 12:17:17;;;;;;;13.43;6.90;;;17.20;99.90;;;;;;1936722;73;21097;-67
2021/05/29 12:19:54;;;;;;;10.50;7.30;;;17.30;99.90;;;;;;1940897;73;21222;-67
2021/05/29 12:22:23;;;;;;;10.58;6.50;;;17.30;99.90;;;;;;1939568;73;21194;-71
2021/05/29 12:25:04;;;;;;;9.35;6.12;;;17.50;99.90;;;;;;1940264;73;21136;-68
2021/05/29 12:27:34;;;;;;;10.70;6.30;;;17.50;99.90;;;;;;1937251;73;21135;-68
2021/05/29 12:30:13;;;;;;;13.65;6.42;;;17.60;99.90;;;;;;1940479;73;21120;-67
2021/05/29 12:32:42;;;;;;;11.57;6.65;;;17.60;99.90;;;;;;1938213;73;21724;-68
2021/05/29 12:35:13;;;;;;;14.85;6.92;;;17.70;99.90;;;;;;1935719;73;21595;-69
2021/05/29 12:37:41;;;;;;;8.58;6.25;;;17.70;99.90;;;;;;1937601;73;21097;-68
2021/05/29 12:40:13;;;;;;;10.30;6.35;;;17.70;99.90;;;;;;1939915;73;21128;-68
2021/05/29 12:42:47;;;;;;;13.08;5.83;;;17.70;99.90;;;;;;1938272;73;21188;-68
2021/05/29 12:45:27;;;;;;;10.65;5.50;;;17.70;99.90;;;;;;1940846;72;21124;-68
2021/05/29 12:48:09;;;;;;;7.08;5.22;;;17.70;99.90;;;;;;1935498;73;21124;-68
2021/05/29 12:50:39;;;;;;;8.08;5.10;;;17.50;99.90;;;;;;1941510;72;21152;-70
2021/05/29 12:53:14;;;;;;;11.12;6.35;;;17.60;99.90;;;;;;1940505;73;21039;-68
2021/05/29 12:55:44;;;;;;;11.43;6.40;;;17.80;99.90;;;;;;1941007;72;21090;-69
2021/05/29 12:58:23;;;;;;;9.95;5.65;;;17.70;99.90;;;;;;1938018;73;21171;-68
2021/05/29 13:01:22;;;;;;;11.22;6.15;;;17.80;99.90;;;;;;1942440;73;20998;-69
2021/05/29 13:09:17;;;;;;;10.55;5.75;;;17.60;99.90;;;;;;1935434;73;21203;-68
2021/05/29 13:11:45;;;;;;;9.85;6.20;;;17.40;99.90;;;;;;1941763;73;21100;-69
2021/05/29 13:14:18;;;;;;;8.43;5.72;;;17.40;99.90;;;;;;1939541;73;21158;-68